Time;durP1;ratioP1;P1;durP2;ratioP2;P2;SDS_P1;SDS_P2;PMS_P1;PMS_P2;Temp;Humidity;BMP_temperature;BMP_pressure;BME280_temperature;BME280_humidity;BME280_pressure;Samples;Min_cycle;Max_cycle;Signal;HPM_P1;HPM_P2
2021/08/07 00:01:37;;;;;;;7.25;3.15;;;;;;;13.86;100.00;100358.09;4975516;28;20030;-81
2021/08/07 00:04:03;;;;;;;7.95;3.28;;;;;;;13.87;100.00;100355.31;4970043;28;20029;-81
2021/08/07 00:06:28;;;;;;;5.85;3.53;;;;;;;13.86;100.00;100350.19;4999572;28;20567;-81
2021/08/07 00:08:54;;;;;;;5.95;3.40;;;;;;;13.86;100.00;100351.00;4959935;28;20081;-83
2021/08/07 00:11:19;;;;;;;8.40;3.75;;;;;;;13.80;100.00;100352.53;4950056;28;20030;-79
2021/08/07 00:13:45;;;;;;;9.35;3.55;;;;;;;13.77;100.00;100350.28;4974789;28;20034;-79
2021/08/07 00:16:11;;;;;;;7.15;3.63;;;;;;;13.75;100.00;100346.16;4967395;28;20114;-81
2021/08/07 00:18:36;;;;;;;5.43;3.60;;;;;;;13.71;100.00;100350.16;4967917;28;20045;-82
2021/08/07 00:21:02;;;;;;;5.00;3.55;;;;;;;13.68;100.00;100346.06;4963866;28;20096;-83
2021/08/07 00:23:28;;;;;;;4.72;3.45;;;;;;;13.65;100.00;100343.78;4975417;28;20045;-83
2021/08/07 00:25:53;;;;;;;3.78;3.38;;;;;;;13.57;100.00;100343.84;4963147;28;20493;-81
2021/08/07 00:28:30;;;;;;;7.45;3.60;;;;;;;13.53;100.00;100347.81;4975994;28;20493;-83
2021/08/07 00:30:56;;;;;;;6.55;3.47;;;;;;;13.53;100.00;100346.00;4965404;28;20041;-78
2021/08/07 00:33:37;;;;;;;6.75;3.70;;;;;;;13.51;100.00;100345.38;4957763;28;20390;-81
2021/08/07 00:36:03;;;;;;;7.70;3.72;;;;;;;13.51;100.00;100348.00;4961329;28;20109;-80
2021/08/07 00:38:28;;;;;;;7.35;3.45;;;;;;;13.52;100.00;100351.44;4956082;28;20034;-79
2021/08/07 00:41:01;;;;;;;8.18;3.80;;;;;;;13.53;100.00;100345.19;4965780;28;20042;-81
2021/08/07 00:43:28;;;;;;;7.10;3.88;;;;;;;13.48;100.00;100343.06;4971347;28;20031;-80
2021/08/07 00:45:54;;;;;;;5.10;3.60;;;;;;;13.47;100.00;100348.50;4958906;28;20827;-82
2021/08/07 00:48:26;;;;;;;4.28;3.88;;;;;;;13.50;100.00;100350.81;4959803;28;20038;-80
2021/08/07 00:50:55;;;;;;;11.02;4.60;;;;;;;13.46;100.00;100345.06;4988821;22;20140;-81
2021/08/07 00:53:22;;;;;;;5.72;3.63;;;;;;;13.44;100.00;100342.59;5006641;28;20030;-80
2021/08/07 00:55:50;;;;;;;5.28;4.20;;;;;;;13.35;100.00;100340.19;4987925;28;20032;-82
2021/08/07 00:58:16;;;;;;;7.13;4.28;;;;;;;13.25;100.00;100330.66;4978497;28;20117;-81
2021/08/07 01:00:44;;;;;;;6.45;3.80;;;;;;;13.28;100.00;100337.41;4964909;28;20042;-82
2021/08/07 01:03:34;;;;;;;4.95;4.20;;;;;;;13.22;100.00;100341.56;4989649;28;20108;-81
2021/08/07 01:06:13;;;;;;;8.60;4.38;;;;;;;13.15;100.00;100327.44;4947370;28;20488;-80
2021/08/07 01:08:43;;;;;;;6.53;3.85;;;;;;;13.19;100.00;100330.56;4986354;28;20108;-81
2021/08/07 01:11:22;;;;;;;11.60;4.47;;;;;;;13.11;100.00;100331.44;4993030;28;20038;-80
2021/08/07 01:13:57;;;;;;;8.23;4.30;;;;;;;13.17;100.00;100335.19;4980722;28;20049;-82
2021/08/07 01:16:27;;;;;;;6.95;4.10;;;;;;;13.16;100.00;100325.63;4970368;28;20571;-81
2021/08/07 01:18:56;;;;;;;8.40;3.80;;;;;;;13.07;100.00;100330.09;4967073;28;20245;-79
2021/08/07 01:21:26;;;;;;;10.73;3.97;;;;;;;13.12;100.00;100340.94;4991988;28;20037;-80
2021/08/07 01:24:02;;;;;;;5.32;4.30;;;;;;;13.11;100.00;100343.75;4950879;28;20120;-79
2021/08/07 01:26:47;;;;;;;12.07;4.47;;;;;;;13.08;100.00;100341.47;4947551;28;20027;-80
2021/08/07 01:29:18;;;;;;;7.75;4.47;;;;;;;13.04;100.00;100336.56;4977548;28;20031;-81
2021/08/07 01:31:51;;;;;;;5.90;4.03;;;;;;;13.01;100.00;100328.16;4967834;28;20544;-80
2021/08/07 01:34:21;;;;;;;5.18;3.83;;;;;;;13.00;100.00;100330.00;4987133;28;20037;-80
2021/08/07 01:36:48;;;;;;;6.15;4.22;;;;;;;12.99;100.00;100335.44;4973254;28;20039;-80
2021/08/07 01:39:21;;;;;;;4.50;4.03;;;;;;;13.00;100.00;100329.19;4957543;28;20038;-79
2021/08/07 01:41:49;;;;;;;5.07;3.95;;;;;;;13.01;100.00;100339.50;4972050;28;20034;-79
2021/08/07 01:44:20;;;;;;;4.87;3.70;;;;;;;12.95;100.00;100334.13;4970845;28;20068;-78
2021/08/07 01:46:54;;;;;;;6.45;4.50;;;;;;;12.96;100.00;100335.75;4973756;28;20066;-79
2021/08/07 01:49:34;;;;;;;6.85;4.80;;;;;;;12.93;100.00;100334.31;4953917;28;20026;-78
2021/08/07 01:52:08;;;;;;;8.55;4.85;;;;;;;12.85;100.00;100335.16;4991900;28;20038;-80
2021/08/07 01:54:52;;;;;;;6.63;3.95;;;;;;;12.86;100.00;100333.34;4983085;28;20034;-80
2021/08/07 01:57:21;;;;;;;9.68;4.30;;;;;;;12.88;100.00;100333.97;4982577;28;20031;-80
2021/08/07 01:59:49;;;;;;;5.68;3.70;;;;;;;12.93;100.00;100344.81;4948682;28;20053;-80
2021/08/07 02:02:16;;;;;;;6.22;4.40;;;;;;;12.95;100.00;100348.09;4975120;28;20034;-79
2021/08/07 02:04:52;;;;;;;10.15;4.40;;;;;;;12.94;100.00;100343.00;4976681;28;20433;-80
2021/08/07 02:07:23;;;;;;;7.70;4.95;;;;;;;12.95;100.00;100334.94;5004328;28;20038;-80
2021/08/07 02:09:57;;;;;;;7.03;4.78;;;;;;;12.93;100.00;100328.22;4983771;28;20042;-79
2021/08/07 02:12:23;;;;;;;4.82;4.43;;;;;;;13.00;100.00;100326.53;4975764;28;20054;-80
2021/08/07 02:14:54;;;;;;;5.22;4.18;;;;;;;13.00;100.00;100326.53;4974232;28;20756;-81
2021/08/07 02:17:20;;;;;;;5.72;5.13;;;;;;;12.95;100.00;100328.88;4989522;28;20849;-83
2021/08/07 02:19:49;;;;;;;6.70;5.03;;;;;;;12.89;100.00;100332.19;4955448;28;20046;-79
2021/08/07 02:22:18;;;;;;;7.05;4.72;;;;;;;12.90;100.00;100339.91;4957959;28;20076;-82
2021/08/07 02:24:44;;;;;;;5.20;4.68;;;;;;;12.89;100.00;100338.28;4971478;28;20091;-81
2021/08/07 02:27:18;;;;;;;5.35;4.70;;;;;;;12.89;100.00;100338.28;4967174;28;20042;-82
2021/08/07 02:29:45;;;;;;;6.38;4.50;;;;;;;12.83;100.00;100325.81;4977534;28;20049;-79
2021/08/07 02:32:13;;;;;;;7.38;4.38;;;;;;;12.71;100.00;100311.38;4942870;28;20035;-83
2021/08/07 02:34:46;;;;;;;7.30;4.55;;;;;;;12.77;100.00;100322.03;4960111;28;20074;-82
2021/08/07 02:37:19;;;;;;;12.05;5.43;;;;;;;12.70;100.00;100312.38;4990091;28;20041;-82
2021/08/07 02:39:47;;;;;;;5.45;4.90;;;;;;;12.74;100.00;100316.31;4977580;28;20034;-82
2021/08/07 02:42:14;;;;;;;5.18;4.65;;;;;;;12.77;100.00;100321.19;4972370;28;20105;-83
2021/08/07 02:44:43;;;;;;;7.53;4.88;;;;;;;12.76;100.00;100309.88;4956402;28;20088;-82
2021/08/07 02:47:10;;;;;;;5.80;4.72;;;;;;;12.73;100.00;100309.38;4969557;28;20053;-81
2021/08/07 02:49:36;;;;;;;6.72;4.60;;;;;;;12.76;100.00;100320.38;4986993;28;20030;-82
2021/08/07 02:52:03;;;;;;;5.85;4.20;;;;;;;12.74;100.00;100317.13;4961917;28;20392;-79
2021/08/07 02:54:28;;;;;;;8.10;4.55;;;;;;;12.69;100.00;100314.16;4974548;28;20037;-80
2021/08/07 02:56:54;;;;;;;6.40;4.82;;;;;;;12.73;100.00;100318.09;4984783;28;20137;-81
2021/08/07 02:59:20;;;;;;;8.77;4.80;;;;;;;12.72;100.00;100318.28;4959097;28;20047;-81
2021/08/07 03:01:47;;;;;;;4.80;4.40;;;;;;;12.69;100.00;100318.63;4968585;28;20069;-79
2021/08/07 03:04:13;;;;;;;7.95;4.90;;;;;;;12.71;100.00;100321.91;4979891;28;20054;-80
2021/08/07 03:06:38;;;;;;;5.13;4.65;;;;;;;12.69;100.00;100316.78;4961254;28;20038;-80
2021/08/07 03:09:04;;;;;;;5.95;5.15;;;;;;;12.66;100.00;100301.38;4976091;28;20049;-79
2021/08/07 03:11:33;;;;;;;8.68;4.75;;;;;;;12.71;100.00;100304.28;4984422;28;20540;-78
2021/08/07 03:14:03;;;;;;;9.00;5.10;;;;;;;12.61;100.00;100299.22;4971219;28;20081;-78
2021/08/07 03:16:33;;;;;;;6.43;5.05;;;;;;;12.64;100.00;100304.16;4992727;28;20027;-80
2021/08/07 03:19:02;;;;;;;9.00;5.30;;;;;;;12.66;100.00;100306.63;4988547;28;20034;-79
2021/08/07 03:21:29;;;;;;;6.47;5.05;;;;;;;12.64;100.00;100306.78;4976112;28;20759;-79
2021/08/07 03:23:58;;;;;;;6.00;5.40;;;;;;;12.70;100.00;100310.56;4987560;28;20468;-79
2021/08/07 03:26:26;;;;;;;6.25;5.10;;;;;;;12.68;100.00;100314.34;4986853;28;20274;-80
2021/08/07 03:28:53;;;;;;;10.20;5.28;;;;;;;12.74;100.00;100318.94;4991685;28;20504;-77
2021/08/07 03:31:22;;;;;;;9.90;6.10;;;;;;;12.72;100.00;100311.19;4969470;28;20043;-80
2021/08/07 03:33:48;;;;;;;7.90;6.25;;;;;;;12.82;100.00;100324.16;4983692;28;20400;-77
2021/08/07 03:36:15;;;;;;;7.75;7.00;;;;;;;12.92;100.00;100324.78;4973075;28;20030;-79
2021/08/07 03:38:43;;;;;;;7.93;7.05;;;;;;;13.00;100.00;100329.19;4988638;28;20177;-80
2021/08/07 03:41:09;;;;;;;10.45;6.82;;;;;;;12.93;100.00;100315.06;4989243;28;20338;-80
2021/08/07 03:43:35;;;;;;;10.38;6.47;;;;;;;12.81;100.00;100304.09;4975904;28;20042;-79
2021/08/07 03:46:01;;;;;;;11.10;6.40;;;;;;;12.77;100.00;100305.41;4972565;28;20053;-80
2021/08/07 03:48:29;;;;;;;6.68;5.97;;;;;;;12.80;100.00;100313.78;4969749;28;20173;-80
2021/08/07 03:50:55;;;;;;;12.25;7.53;;;;;;;12.90;100.00;100325.91;4975871;28;20160;-80
2021/08/07 03:53:29;;;;;;;7.85;6.72;;;;;;;12.96;100.00;100325.22;4960165;28;20080;-80
2021/08/07 03:55:55;;;;;;;8.60;7.03;;;;;;;12.94;100.00;100324.59;4966185;28;20635;-80
2021/08/07 03:58:21;;;;;;;7.38;6.68;;;;;;;12.91;100.00;100327.56;4951589;28;20076;-79
2021/08/07 04:01:00;;;;;;;8.60;7.18;;;;;;;12.89;100.00;100324.31;4986132;28;20034;-78
2021/08/07 04:03:29;;;;;;;7.90;7.03;;;;;;;12.92;100.00;100324.78;4971873;28;20157;-80
2021/08/07 04:05:57;;;;;;;7.13;6.20;;;;;;;12.84;100.00;100311.63;4976936;28;20424;-78
2021/08/07 04:08:23;;;;;;;7.93;6.53;;;;;;;12.91;100.00;100323.13;4973391;28;20034;-82
2021/08/07 04:10:49;;;;;;;10.55;7.38;;;;;;;12.91;100.00;100323.13;4986363;28;21832;-80
2021/08/07 04:13:14;;;;;;;8.32;7.20;;;;;;;12.89;100.00;100319.84;4973976;28;20034;-78
2021/08/07 04:15:41;;;;;;;8.63;7.53;;;;;;;12.95;100.00;100316.50;4991933;28;20037;-79
2021/08/07 04:18:08;;;;;;;8.10;7.30;;;;;;;12.99;100.00;100325.69;4992716;28;20181;-78
2021/08/07 04:20:35;;;;;;;10.93;7.07;;;;;;;12.97;100.00;100325.06;4991014;28;20589;-80
2021/08/07 04:23:03;;;;;;;10.68;7.50;;;;;;;13.02;100.00;100330.63;4974376;28;20030;-81
2021/08/07 04:25:33;;;;;;;11.23;7.45;;;;;;;13.03;100.00;100316.50;4963146;28;20042;-80
2021/08/07 04:27:58;;;;;;;10.77;6.93;;;;;;;13.04;100.00;100320.75;5008140;28;20042;-80
2021/08/07 04:30:24;;;;;;;13.77;7.47;;;;;;;13.13;100.00;100316.28;4990973;28;20122;-81
2021/08/07 04:32:50;;;;;;;9.93;8.02;;;;;;;13.25;100.00;100322.75;4988181;28;20030;-80
2021/08/07 04:35:15;;;;;;;11.38;7.57;;;;;;;13.25;100.00;100325.41;4990959;28;20742;-80
2021/08/07 04:37:56;;;;;;;8.80;7.78;;;;;;;13.30;100.00;100324.06;4976841;28;20034;-82
2021/08/07 04:40:29;;;;;;;10.15;7.10;;;;;;;13.27;100.00;100314.69;4972954;28;20042;-81
2021/08/07 04:43:00;;;;;;;9.63;7.97;;;;;;;13.23;100.00;100314.22;4975473;28;20041;-80
2021/08/07 04:45:26;;;;;;;9.60;7.68;;;;;;;13.34;100.00;100333.31;4970839;28;20038;-79
2021/08/07 04:47:54;;;;;;;10.23;8.32;;;;;;;13.49;100.00;100344.72;4983851;28;20042;-80
2021/08/07 04:50:21;;;;;;;13.80;9.05;;;;;;;13.68;100.00;100346.06;4956882;28;20097;-81
2021/08/07 04:52:46;;;;;;;13.02;9.95;;;;;;;13.71;100.00;100332.53;4973069;28;20045;-83
2021/08/07 04:55:12;;;;;;;13.38;9.48;;;;;;;13.86;100.00;100337.03;4974593;28;20035;-80
2021/08/07 04:57:37;;;;;;;15.00;8.80;;;;;;;13.87;100.00;100339.47;4954958;28;20574;-81
2021/08/07 05:00:04;;;;;;;14.77;9.15;;;;;;;13.90;100.00;100338.28;4973330;28;20045;-78
2021/08/07 05:02:31;;;;;;;10.90;8.98;;;;;;;13.92;100.00;100334.50;5007242;28;20105;-79
2021/08/07 05:04:57;;;;;;;10.88;9.13;;;;;;;13.99;100.00;100343.34;4965936;28;20034;-80
2021/08/07 05:07:23;;;;;;;11.65;9.27;;;;;;;14.04;100.00;100339.34;4976533;28;20045;-78
2021/08/07 05:09:50;;;;;;;14.65;8.57;;;;;;;14.11;100.00;100351.63;4966205;28;20034;-79
2021/08/07 05:12:21;;;;;;;12.98;9.52;;;;;;;14.10;100.00;100338.63;4975145;28;20065;-81
2021/08/07 05:14:46;;;;;;;12.70;9.10;;;;;;;14.14;100.00;100343.34;4991295;28;20522;-80
2021/08/07 05:17:15;;;;;;;11.52;8.68;;;;;;;14.14;100.00;100350.44;4976215;28;20041;-83
2021/08/07 05:19:40;;;;;;;10.45;8.68;;;;;;;14.17;100.00;100336.91;4972222;28;20106;-80
2021/08/07 05:22:08;;;;;;;10.73;9.25;;;;;;;14.18;100.00;100339.38;4991837;28;20551;-80
2021/08/07 05:24:34;;;;;;;13.85;8.50;;;;;;;14.29;100.00;100343.38;4974472;28;20038;-81
2021/08/07 05:26:59;;;;;;;12.80;8.50;;;;;;;14.32;100.00;100348.28;4991851;28;20074;-79
2021/08/07 05:29:25;;;;;;;15.35;9.35;;;;;;;14.40;100.00;100348.19;4987699;28;20042;-80
2021/08/07 05:31:51;;;;;;;10.27;8.38;;;;;;;14.47;100.00;100344.88;4988802;28;20038;-79
2021/08/07 05:34:17;;;;;;;11.77;8.70;;;;;;;14.53;100.00;100347.56;4981345;28;20041;-77
2021/08/07 05:36:42;;;;;;;11.75;8.15;;;;;;;14.57;100.00;100348.06;4985809;28;20117;-79
2021/08/07 05:39:09;;;;;;;9.98;8.48;;;;;;;14.61;100.00;100349.34;4990597;28;20117;-83
2021/08/07 05:41:35;;;;;;;11.35;8.52;;;;;;;14.70;100.00;100348.25;4959158;28;20118;-81
2021/08/07 05:44:00;;;;;;;9.00;8.18;;;;;;;14.79;100.00;100347.16;4990532;28;20576;-82
2021/08/07 05:46:27;;;;;;;8.60;7.78;;;;;;;14.89;100.00;100351.31;4993514;28;20041;-82
2021/08/07 05:48:54;;;;;;;10.10;8.77;;;;;;;14.99;100.00;100350.03;4976777;28;20038;-79
2021/08/07 05:51:20;;;;;;;12.05;8.00;;;;;;;15.04;100.00;100349.47;4986521;28;20034;-78
2021/08/07 05:53:46;;;;;;;10.68;8.23;;;;;;;15.12;100.00;100349.34;4955205;28;20035;-80
2021/08/07 05:56:12;;;;;;;9.68;7.60;;;;;;;15.20;100.00;100359.03;4940911;28;20573;-83
2021/08/07 05:58:37;;;;;;;10.43;8.07;;;;;;;15.22;100.00;100342.97;4988074;28;20144;-83
2021/08/07 06:01:05;;;;;;;8.73;7.28;;;;;;;15.26;100.00;100354.81;4955846;28;20056;-82
2021/08/07 06:03:31;;;;;;;11.55;7.43;;;;;;;15.19;100.00;100339.69;4952432;28;20104;-81
2021/08/07 06:05:57;;;;;;;11.98;8.00;;;;;;;15.25;100.00;100343.41;4975147;28;20481;-80
2021/08/07 06:08:23;;;;;;;11.43;7.25;;;;;;;15.44;100.00;100347.25;4963217;28;20038;-82
2021/08/07 06:10:48;;;;;;;13.32;7.50;;;;;;;15.44;100.00;100331.41;4962753;28;20034;-82
2021/08/07 06:13:15;;;;;;;9.50;7.22;;;;;;;15.57;100.00;100330.72;4987279;28;20042;-82
2021/08/07 06:15:42;;;;;;;10.90;7.35;;;;;;;15.59;100.00;100333.97;4986296;28;20037;-83
2021/08/07 06:18:08;;;;;;;10.27;6.90;;;;;;;15.56;100.00;100329.09;4969137;28;20037;-81
2021/08/07 06:20:38;;;;;;;10.23;7.03;;;;;;;15.58;100.00;100343.75;4956718;28;20085;-81
2021/08/07 06:23:04;;;;;;;10.38;6.47;;;;;;;15.58;100.00;100345.59;4949657;28;20035;-83
2021/08/07 06:25:29;;;;;;;9.75;7.25;;;;;;;15.63;100.00;100345.00;5004985;28;20034;-79
2021/08/07 06:27:56;;;;;;;9.68;7.43;;;;;;;15.67;100.00;100333.03;4994904;28;20030;-81
2021/08/07 06:30:25;;;;;;;13.90;7.22;;;;;;;15.73;100.00;100346.34;4975386;28;20037;-80
2021/08/07 06:32:52;;;;;;;8.90;6.57;;;;;;;15.82;100.00;100349.66;4958089;28;20034;-82
2021/08/07 06:35:18;;;;;;;8.90;6.97;;;;;;;15.87;100.00;100347.28;4984851;28;20027;-81
2021/08/07 06:37:44;;;;;;;8.98;6.40;;;;;;;15.91;100.00;100343.25;4972402;28;20459;-81
2021/08/07 06:40:11;;;;;;;8.65;6.30;;;;;;;15.98;100.00;100353.88;4956180;28;20039;-81
2021/08/07 06:42:38;;;;;;;8.45;5.85;;;;;;;16.00;100.00;100351.06;4950657;28;20073;-80
2021/08/07 06:45:11;;;;;;;;;;;;;;;16.04;100.00;100358.41;4993259;28;20039;-81
2021/08/07 06:47:38;;;;;;;10.23;5.90;;;;;;;16.08;100.00;100357.00;4976820;28;19928;-80
2021/08/07 06:50:23;;;;;;;9.27;5.75;;;;;;;15.90;100.00;100336.34;4977949;28;20046;-80
2021/08/07 06:52:49;;;;;;;13.65;5.97;;;;;;;16.15;100.00;100359.72;4956640;28;20054;-79
2021/08/07 06:55:14;;;;;;;9.98;5.88;;;;;;;16.19;100.00;100363.59;4992911;28;20122;-82
2021/08/07 06:57:41;;;;;;;12.32;6.05;;;;;;;16.12;100.00;100368.03;4989102;28;20031;-79
2021/08/07 07:00:09;;;;;;;8.18;5.57;;;;;;;16.11;100.00;100371.69;5005090;28;20034;-81
2021/08/07 07:02:36;;;;;;;5.88;4.97;;;;;;;16.03;100.00;100375.31;4940748;28;20038;-80
2021/08/07 07:05:02;;;;;;;5.60;4.90;;;;;;;15.98;100.00;100364.47;4955624;28;20092;-79
2021/08/07 07:07:28;;;;;;;6.20;5.60;;;;;;;16.09;100.00;100373.72;4965595;28;20054;-80
2021/08/07 07:09:54;;;;;;;9.73;5.88;;;;;;;16.11;100.00;100375.16;4979478;28;20035;-79
2021/08/07 07:12:19;;;;;;;7.63;5.63;;;;;;;16.14;100.00;100377.44;4965667;28;20129;-82
2021/08/07 07:14:45;;;;;;;11.35;5.40;;;;;;;16.12;100.00;100379.44;4980940;28;20043;-78
2021/08/07 07:17:11;;;;;;;8.07;5.90;;;;;;;16.03;100.00;100372.66;4983479;28;20031;-80
2021/08/07 07:19:37;;;;;;;6.93;5.07;;;;;;;16.12;100.00;100376.81;4937993;28;20071;-77
2021/08/07 07:22:04;;;;;;;13.30;5.95;;;;;;;16.23;100.00;100383.38;4961263;28;20049;-80
2021/08/07 07:24:30;;;;;;;7.43;5.50;;;;;;;16.32;100.00;100374.28;4940968;28;20043;-82
2021/08/07 07:26:56;;;;;;;8.77;6.03;;;;;;;16.41;100.00;100380.25;4940586;28;20100;-79
2021/08/07 07:29:21;;;;;;;9.43;5.75;;;;;;;16.48;100.00;100381.13;4962871;28;20520;-82
2021/08/07 07:31:48;;;;;;;7.90;5.55;;;;;;;16.44;100.00;100376.41;4933770;28;20041;-81
2021/08/07 07:34:16;;;;;;;9.82;4.50;;;;;;;16.49;100.00;100384.59;4967389;28;20038;-83
2021/08/07 07:36:42;;;;;;;6.88;4.82;;;;;;;16.58;100.00;100387.91;4980091;28;20114;-78
2021/08/07 07:39:07;;;;;;;8.27;5.15;;;;;;;16.64;100.00;100393.22;5018147;28;20027;-80
2021/08/07 07:41:33;;;;;;;6.72;4.60;;;;;;;16.60;100.00;100384.03;4982104;28;20472;-80
2021/08/07 07:43:59;;;;;;;12.30;5.07;;;;;;;16.62;100.00;100386.50;4954472;29;20031;-79
2021/08/07 07:46:25;;;;;;;10.73;5.03;;;;;;;16.71;100.00;100385.34;4954249;28;20564;-80
2021/08/07 07:48:51;;;;;;;10.35;4.28;;;;;;;16.80;100.00;100394.75;4964172;28;20104;-81
2021/08/07 07:51:17;;;;;;;7.40;4.65;;;;;;;16.97;100.00;100389.13;4966829;28;20035;-80
2021/08/07 07:53:42;;;;;;;7.93;4.00;;;;;;;17.12;100.00;100390.66;4994896;28;20038;-79
2021/08/07 07:56:08;;;;;;;6.82;4.22;;;;;;;17.11;100.00;100389.00;4960168;28;20042;-79
2021/08/07 07:58:36;;;;;;;6.50;4.40;;;;;;;17.13;100.00;100388.81;4974121;28;20041;-81
2021/08/07 08:01:02;;;;;;;6.18;4.32;;;;;;;17.12;100.00;100390.66;4956327;28;20436;-79
2021/08/07 08:03:28;;;;;;;6.38;4.07;;;;;;;17.15;100.00;100388.63;4984827;28;20038;-79
2021/08/07 08:05:54;;;;;;;7.70;4.15;;;;;;;17.23;100.00;100397.19;4958952;28;20072;-78
2021/08/07 08:08:20;;;;;;;8.07;4.47;;;;;;;17.24;100.00;100390.06;4965665;28;20054;-78
2021/08/07 08:10:46;;;;;;;8.30;4.78;;;;;;;17.37;100.00;100395.41;4939430;28;20469;-79
2021/08/07 08:13:19;;;;;;;6.43;4.75;;;;;;;17.41;100.00;100393.19;4971566;28;20038;-80
2021/08/07 08:15:46;;;;;;;7.75;4.00;;;;;;;17.24;100.00;100385.59;4931531;28;20039;-80
2021/08/07 08:18:12;;;;;;;6.53;4.00;;;;;;;17.27;100.00;100379.91;5004344;28;20066;-78
2021/08/07 08:20:39;;;;;;;6.90;3.58;;;;;;;17.38;100.00;100383.78;4969550;28;20094;-79
2021/08/07 08:23:05;;;;;;;6.55;3.63;;;;;;;17.44;100.00;100387.47;4951880;28;20062;-76
2021/08/07 08:25:31;;;;;;;7.30;3.22;;;;;;;17.43;99.35;100380.53;4990678;28;20038;-79
2021/08/07 08:27:57;;;;;;;5.03;3.53;;;;;;;17.56;100.00;100375.28;4945068;28;20058;-79
2021/08/07 08:30:23;;;;;;;6.13;3.50;;;;;;;17.61;96.70;100382.59;4954338;28;20066;-81
2021/08/07 08:32:49;;;;;;;5.07;3.42;;;;;;;17.74;98.74;100379.97;4971052;28;20050;-80
2021/08/07 08:35:15;;;;;;;4.47;3.17;;;;;;;17.79;96.39;100377.53;4971746;28;20070;-81
2021/08/07 08:37:42;;;;;;;6.07;3.17;;;;;;;17.94;95.86;100380.03;4974143;28;20038;-81
2021/08/07 08:40:09;;;;;;;6.20;3.53;;;;;;;18.14;96.05;100382.69;4958784;28;20041;-79
2021/08/07 08:42:35;;;;;;;5.38;3.17;;;;;;;18.11;90.55;100377.78;4988917;28;20417;-79
2021/08/07 08:45:04;;;;;;;4.82;2.92;;;;;;;18.32;91.45;100367.97;4956862;28;20031;-79
2021/08/07 08:47:29;;;;;;;4.95;2.88;;;;;;;18.55;92.64;100370.97;4958853;28;20046;-78
2021/08/07 08:49:55;;;;;;;3.13;2.55;;;;;;;18.99;88.57;100374.75;4972049;28;20042;-79
2021/08/07 08:52:24;;;;;;;4.07;2.33;;;;;;;19.22;89.70;100371.56;4954997;28;20035;-80
2021/08/07 08:54:52;;;;;;;4.15;2.20;;;;;;;19.35;87.55;100367.22;4965935;28;20039;-79
2021/08/07 08:57:19;;;;;;;6.05;2.25;;;;;;;19.37;86.08;100371.28;4955188;28;20034;-81
2021/08/07 08:59:45;;;;;;;4.72;2.58;;;;;;;19.47;85.46;100378.78;4965061;28;20065;-79
2021/08/07 09:02:11;;;;;;;2.85;1.92;;;;;;;19.43;82.12;100382.91;4981247;28;20641;-80
2021/08/07 09:04:37;;;;;;;4.78;1.92;;;;;;;19.35;83.57;100381.31;4954890;28;20038;-80
2021/08/07 09:07:03;;;;;;;4.15;2.10;;;;;;;19.31;86.50;100369.50;4955410;28;20049;-79
2021/08/07 09:09:40;;;;;;;2.15;1.70;;;;;;;19.29;89.14;100376.88;4979572;28;20042;-79
2021/08/07 09:12:11;;;;;;;3.47;2.20;;;;;;;19.31;88.28;100384.59;4970554;28;20122;-81
2021/08/07 09:14:39;;;;;;;2.95;1.83;;;;;;;19.36;88.57;100388.25;4980818;28;20468;-80
2021/08/07 09:17:27;;;;;;;2.92;1.75;;;;;;;19.33;88.68;100387.91;4957693;28;20023;-77
2021/08/07 09:19:59;;;;;;;6.32;1.70;;;;;;;19.40;85.81;100380.69;4974060;28;20057;-80
2021/08/07 09:22:31;;;;;;;3.58;1.75;;;;;;;19.48;87.86;100372.47;4955919;28;20130;-80
2021/08/07 09:25:16;;;;;;;3.33;1.50;;;;;;;19.64;85.32;100376.44;4983005;28;20389;-80
2021/08/07 09:27:45;;;;;;;6.43;1.70;;;;;;;19.64;82.66;100377.25;4961390;28;20583;-79
2021/08/07 09:30:17;;;;;;;4.15;1.60;;;;;;;19.78;81.36;100374.56;4984778;28;20106;-77
2021/08/07 09:33:03;;;;;;;;;;;;;;;19.99;79.21;100376.03;4958530;28;20045;-80
2021/08/07 09:35:40;;;;;;;3.55;1.48;;;;;;;20.12;77.21;100370.56;4964135;28;19922;-81
2021/08/07 09:38:11;;;;;;;4.45;1.30;;;;;;;20.26;79.36;100371.25;4972083;28;20038;-78
2021/08/07 09:40:43;;;;;;;3.65;1.70;;;;;;;20.38;79.53;100358.03;4970240;28;20523;-78
2021/08/07 09:43:10;;;;;;;5.15;1.48;;;;;;;20.58;78.83;100361.28;4968740;28;20111;-78
2021/08/07 09:45:36;;;;;;;2.92;1.48;;;;;;;20.89;78.03;100361.38;4964556;28;20046;-79
2021/08/07 09:48:09;;;;;;;4.38;1.38;;;;;;;21.04;72.64;100366.34;4961714;28;20035;-78
2021/08/07 09:50:35;;;;;;;5.70;1.60;;;;;;;21.14;72.93;100364.75;4971196;28;20062;-78
2021/08/07 09:53:05;;;;;;;4.72;1.77;;;;;;;21.00;73.74;100352.63;4975088;28;20061;-81
2021/08/07 09:55:32;;;;;;;3.63;1.40;;;;;;;21.12;73.40;100366.84;4955472;28;20045;-84
2021/08/07 09:58:05;;;;;;;2.65;1.40;;;;;;;21.82;73.27;100368.13;4973482;28;20034;-85
2021/08/07 10:00:37;;;;;;;2.45;1.10;;;;;;;22.27;72.08;100372.94;4975019;28;20126;-81
2021/08/07 10:03:15;;;;;;;5.28;1.50;;;;;;;22.48;69.21;100358.16;4963051;28;20441;-82
2021/08/07 10:05:42;;;;;;;4.40;1.50;;;;;;;22.33;70.03;100363.19;4978579;28;20041;-82
2021/08/07 10:08:10;;;;;;;3.60;1.50;;;;;;;22.05;68.49;100356.63;4957282;28;20034;-83
2021/08/07 10:10:47;;;;;;;5.38;1.63;;;;;;;22.10;66.50;100364.78;4955796;28;20046;-84
2021/08/07 10:13:18;;;;;;;4.57;1.80;;;;;;;22.25;68.93;100359.00;4951061;29;20027;-80
2021/08/07 10:15:51;;;;;;;5.18;1.40;;;;;;;22.26;67.12;100357.94;4956755;28;20086;-82
2021/08/07 10:18:17;;;;;;;7.30;1.90;;;;;;;22.53;68.53;100349.47;4983382;28;20042;-82
2021/08/07 10:20:43;;;;;;;4.43;1.83;;;;;;;22.62;63.36;100350.72;4955944;28;20042;-82
2021/08/07 10:23:10;;;;;;;5.85;1.83;;;;;;;22.62;67.11;100345.38;4984088;28;20046;-80
2021/08/07 10:25:42;;;;;;;5.95;1.50;;;;;;;22.92;67.59;100339.81;4965841;28;20089;-80
2021/08/07 10:28:11;;;;;;;5.80;1.50;;;;;;;23.23;67.42;100339.59;4955560;28;20097;-81
2021/08/07 10:30:37;;;;;;;5.43;1.20;;;;;;;22.71;64.92;100335.91;4960751;28;20058;-81
2021/08/07 10:33:04;;;;;;;6.90;1.50;;;;;;;22.49;63.33;100334.91;4950580;29;20113;-82
2021/08/07 10:35:30;;;;;;;6.72;1.50;;;;;;;22.10;67.04;100332.72;4974724;28;20108;-81
2021/08/07 10:37:58;;;;;;;3.55;1.27;;;;;;;21.86;67.33;100331.09;4990622;28;20400;-82
2021/08/07 10:40:26;;;;;;;5.82;1.63;;;;;;;21.53;67.29;100322.59;4952612;28;20046;-81
2021/08/07 10:42:54;;;;;;;2.85;1.70;;;;;;;21.36;67.91;100327.75;4956550;28;20027;-79
2021/08/07 10:45:21;;;;;;;5.82;1.60;;;;;;;21.16;68.52;100328.00;4961649;28;20035;-80
2021/08/07 10:47:49;;;;;;;6.95;1.80;;;;;;;21.45;67.90;100319.44;4961204;28;20043;-81
2021/08/07 10:50:29;;;;;;;5.07;1.63;;;;;;;21.83;66.76;100321.72;4988442;28;20051;-80
2021/08/07 10:53:04;;;;;;;6.97;1.50;;;;;;;22.07;67.65;100325.16;4969732;28;20112;-78
2021/08/07 10:55:53;;;;;;;2.47;1.42;;;;;;;22.39;66.00;100311.47;4966598;28;20125;-81
2021/08/07 10:58:43;;;;;;;4.75;1.60;;;;;;;22.15;67.36;100324.84;5007752;28;20125;-80
2021/08/07 11:01:27;;;;;;;3.33;1.25;;;;;;;21.71;66.55;100321.69;4947049;28;20460;-82
2021/08/07 11:04:03;;;;;;;4.75;1.58;;;;;;;21.39;70.28;100321.13;4970560;28;20057;-81
2021/08/07 11:06:37;;;;;;;4.18;1.50;;;;;;;21.33;70.59;100319.38;4955170;28;20035;-80
2021/08/07 11:09:22;;;;;;;3.10;1.48;;;;;;;21.22;68.83;100304.97;4959120;28;20047;-81
2021/08/07 11:11:50;;;;;;;4.28;1.40;;;;;;;21.29;71.09;100300.34;4995652;28;20034;-81
2021/08/07 11:14:45;;;;;;;6.28;1.55;;;;;;;21.38;71.06;100295.50;4973190;28;20126;-81
2021/08/07 11:17:10;;;;;;;4.32;1.40;;;;;;;22.13;69.46;100294.06;4963208;28;20122;-81
2021/08/07 11:20:03;;;;;;;2.50;1.27;;;;;;;22.87;65.54;100288.91;4989421;28;20197;-79
2021/08/07 11:22:32;;;;;;;5.57;1.38;;;;;;;23.27;63.48;100298.75;4976551;28;20041;-80
2021/08/07 11:25:00;;;;;;;5.28;1.60;;;;;;;23.07;62.01;100291.16;4963813;28;20042;-81